Time,TemperatureF,DewpointF,PressureIn,WindDirection,WindDirectionDegrees,WindSpeedMPH,WindSpeedGustMPH,Humidity,HourlyPrecipIn,Conditions,Clouds,dailyrainin,SoftwareType,DateUTC
2013-01-23 00:00:00,39.1,4.6,30.07,SSE,158,1.0,5.0,24,0.00,,---,0.00,VWS V13.01,2013-01-23 08:00:00,
2013-01-23 00:30:00,38.2,4.1,30.05,SSE,158,0.0,1.0,24,0.00,,---,0.00,VWS V13.01,2013-01-23 08:30:00,
2013-01-23 01:00:00,37.6,4.9,30.07,SSE,158,0.0,3.0,24,0.00,,---,0.00,VWS V13.01,2013-01-23 09:00:00,
2013-01-23 01:30:00,37.5,3.8,30.06,SSE,158,0.0,0.0,25,0.00,,---,0.00,VWS V13.01,2013-01-23 09:30:00,
2013-01-23 02:00:00,37.2,3.5,30.05,SSE,158,0.0,2.0,24,0.00,,---,0.00,VWS V13.01,2013-01-23 10:00:00,
2013-01-23 02:30:00,35.9,4.0,30.06,East,90,0.0,4.0,25,0.00,,---,0.00,VWS V13.01,2013-01-23 10:30:00,
2013-01-23 03:00:00,34.5,3.0,30.06,East,90,0.0,3.0,27,0.00,,---,0.00,VWS V13.01,2013-01-23 11:00:00,
2013-01-23 03:30:00,33.4,3.3,30.06,East,90,0.0,1.0,27,0.00,,---,0.00,VWS V13.01,2013-01-23 11:30:00,
2013-01-23 04:00:00,33.7,4.0,30.06,East,90,0.0,0.0,27,0.00,,---,0.00,VWS V13.01,2013-01-23 12:00:00,
2013-01-23 04:30:00,34.5,5.3,30.04,East,90,0.0,2.0,27,0.00,,---,0.00,VWS V13.01,2013-01-23 12:30:00,
2013-01-23 05:00:00,36.0,4.7,30.04,East,90,0.0,3.0,27,0.00,,---,0.00,VWS V13.01,2013-01-23 13:00:00,
2013-01-23 05:30:00,37.3,3.2,30.05,East,90,0.0,3.0,25,0.00,,---,0.00,VWS V13.01,2013-01-23 13:30:00,
2013-01-23 06:00:00,37.7,3.7,30.05,East,90,0.0,3.0,23,0.00,,---,0.00,VWS V13.01,2013-01-23 14:00:00,
2013-01-23 06:30:00,34.2,6.5,30.06,East,90,0.0,4.0,27,0.00,,---,0.00,VWS V13.01,2013-01-23 14:30:00,
2013-01-23 07:00:00,33.9,10.6,30.06,East,90,0.0,3.0,31,0.00,,---,0.00,VWS V13.01,2013-01-23 15:00:00,
2013-01-23 07:30:00,34.8,10.3,30.06,East,90,0.0,0.0,36,0.00,,---,0.00,VWS V13.01,2013-01-23 15:30:00,
2013-01-23 08:00:00,35.9,7.0,30.07,East,90,0.0,2.0,34,0.00,,---,0.00,VWS V13.01,2013-01-23 16:00:00,
2013-01-23 08:30:00,37.1,8.8,30.08,East,90,0.0,1.0,28,0.00,,---,0.00,VWS V13.01,2013-01-23 16:30:00,
2013-01-23 09:00:00,38.2,8.1,30.07,East,90,0.0,3.0,29,0.00,,---,0.00,VWS V13.01,2013-01-23 17:00:00,
2013-01-23 09:30:00,39.3,8.7,30.06,East,90,0.0,3.0,27,0.00,,---,0.00,VWS V13.01,2013-01-23 17:30:00,
2013-01-23 10:00:00,40.9,7.5,30.10,East,90,0.0,3.0,26,0.00,,---,0.00,VWS V13.01,2013-01-23 18:00:00,
2013-01-23 10:30:00,41.6,8.4,30.08,East,90,0.0,0.0,24,0.00,,---,0.00,VWS V13.01,2013-01-23 18:30:00,
2013-01-23 11:00:00,42.6,8.5,30.10,East,90,0.0,2.0,24,0.00,,---,0.00,VWS V13.01,2013-01-23 19:00:00,
2013-01-23 11:30:00,46.3,10.9,30.09,East,90,0.0,2.0,21,0.00,,---,0.00,VWS V13.01,2013-01-23 19:30:00,
2013-01-23 12:00:00,50.4,11.4,30.07,East,90,0.0,1.0,20,0.00,,---,0.00,VWS V13.01,2013-01-23 20:00:00,
2013-01-23 12:30:00,52.5,11.4,30.06,East,90,0.0,3.0,19,0.00,,---,0.00,VWS V13.01,2013-01-23 20:30:00,
2013-01-23 13:00:00,55.5,12.3,30.06,East,90,0.0,5.0,17,0.00,,---,0.00,VWS V13.01,2013-01-23 21:00:00,
2013-01-23 13:30:00,56.6,11.9,30.03,ENE,68,1.0,5.0,17,0.00,,---,0.00,VWS V13.01,2013-01-23 21:30:00,
2013-01-23 14:00:00,56.1,11.4,30.04,East,90,1.0,5.0,17,0.00,,---,0.00,VWS V13.01,2013-01-23 22:00:00,
2013-01-23 14:30:00,58.9,13.3,30.01,East,90,1.0,4.0,15,0.00,,---,0.00,VWS V13.01,2013-01-23 22:30:00,
2013-01-23 15:00:00,61.3,13.6,30.00,East,90,2.0,5.0,15,0.00,,---,0.00,VWS V13.01,2013-01-23 23:00:00,
2013-01-23 15:30:00,61.7,12.5,29.98,NNE,22,2.0,6.0,15,0.00,,---,0.00,VWS V13.01,2013-01-23 23:30:00,
2013-01-23 16:00:00,62.3,14.2,29.98,NNE,22,3.0,8.0,14,0.00,,---,0.00,VWS V13.01,2013-01-24 00:00:00,
2013-01-23 16:30:00,62.4,13.9,29.98,NNE,22,2.0,5.0,15,0.00,,---,0.00,VWS V13.01,2013-01-24 00:30:00,
2013-01-23 17:00:00,62.0,14.0,29.99,NNE,22,1.0,4.0,15,0.00,,---,0.00,VWS V13.01,2013-01-24 01:00:00,
2013-01-23 17:30:00,62.2,14.2,29.97,NNE,22,3.0,8.0,15,0.00,,---,0.00,VWS V13.01,2013-01-24 01:30:00,
2013-01-23 18:00:00,62.4,13.8,30.00,NNE,22,2.0,8.0,15,0.00,,---,0.00,VWS V13.01,2013-01-24 02:00:00,
2013-01-23 18:30:00,60.1,12.9,29.99,NNE,22,1.0,4.0,16,0.00,,---,0.00,VWS V13.01,2013-01-24 02:30:00,
2013-01-23 19:00:00,57.3,12.6,30.00,NNE,22,0.0,2.0,17,0.00,,---,0.00,VWS V13.01,2013-01-24 03:00:00,
2013-01-23 19:30:00,56.9,13.6,30.01,NNE,22,0.0,3.0,17,0.00,,---,0.00,VWS V13.01,2013-01-24 03:30:00,
2013-01-23 20:00:00,56.6,14.2,30.00,NNE,22,0.0,2.0,18,0.00,,---,0.00,VWS V13.01,2013-01-24 04:00:00,
2013-01-23 20:30:00,55.8,14.2,30.00,NW,315,0.0,4.0,19,0.00,,---,0.00,VWS V13.01,2013-01-24 04:30:00,
2013-01-23 21:00:00,55.8,13.3,30.00,NW,315,2.0,7.0,19,0.00,,---,0.00,VWS V13.01,2013-01-24 05:00:00,
2013-01-23 21:30:00,56.2,13.0,30.01,North,0,0.0,3.0,18,0.00,,---,0.00,VWS V13.01,2013-01-24 05:30:00,
2013-01-23 22:00:00,55.9,13.7,30.01,North,0,0.0,3.0,18,0.00,,---,0.00,VWS V13.01,2013-01-24 06:00:00,
2013-01-23 22:30:00,55.2,15.1,30.03,North,0,0.0,1.0,19,0.00,,---,0.00,VWS V13.01,2013-01-24 06:30:00,
2013-01-23 23:00:00,54.1,12.2,30.00,WNW,292,1.0,4.0,21,0.00,,---,0.00,VWS V13.01,2013-01-24 07:00:00,
2013-01-23 23:30:00,53.4,12.8,30.00,WNW,292,3.0,6.0,19,0.00,,---,0.00,VWS V13.01,2013-01-24 07:30:00,